Yacolt, Washington
Current Conditions -  °F | °C
As of 2:53 PM on Wednesday 22 Oct 2014 (Local Time) from KVUO Reporting Station
Moderate Rain Moderate Rain  
Wind Chill: 57°   Ceiling: 3500
Heat Index: 57°   Visibility: 3mi
Dew Point: 54°   Wind: 5mph
Humidity: 89%   Direction: 130°SE
Pressure: 29.7"   Gusts: NA
Location:  45.87°N, 122.41°W
Report Text: KVUO 222153Z AUTO 13004KT 3SM RA BR OVC035 14/12 A2970 RMK AO2 SLP058 P0029 T01390122
Loading
Personal Weather Stations






























Interactive Weather Map
Tropical Storm Tracking
New forecast layout! Learn more

10-Day Weather Forecast

Advertisements
Track Severe Weather on mobile